CYQMCYYG

Guest
Details From CYQM - Greater Moncton Intl
To CYYG - Charlottetown
Flight Number -
Tags Generated
Created
Modified
Stats Distance 66 nm / 122 km
Max Altitude 0 ft / 0 m
Waypoints 2
Social Downloads 3
Likes 0
Share VATSIM

Download

Looking for another format? Having issues loading an existing format? Contact us
Advertisement - Login to hide

Notes

Generated

Route

CYQM CYYG

ID Type Via Altitude Latitude Longitude Leg Dist Tot Dist Heading (true) Name
O CYQM APT - 0 ft / 0 m 46.10580˚ -64.69495˚ - 0 nm - -
O CYYG APT - 0 ft / 0 m 46.29433˚ -63.12895˚ 66 nm 66 nm 80° / 81° -

Altitude Profile

Advertisement - Login to hide

CYQM

Details ICAO CYQM (YQM)
Name GREATER MONCTON INTL
Region Canada
Timezone America/Moncton (UTC-4.0)
Stats Elevation 232 ft / 71 m (AMSL)
Location 46.109570° -64.682936°
Runways 2
Magnetic Variation 17.604° W

METAR

CYQM 151000Z 23020G30KT 15SM SKC M14/M18 A2968 RMK SLP059

Decode

TAF

TAF CYQM 150538Z 1506/1606 25015G25KT P6SM FEW025 FM152100 24012KT P6SM BKN220 FM160200 23007KT P6SM BKN140 OVC220 RMK NXT FCST BY 151200Z

Decode

Departure Runways

ID Width Length Bearing (true) Bearing (mag) Surface Threshold Offset Overrun Length
06 200 ft / 61 m 6,156 ft / 1,876 m 42.51° 60.11° Asphalt 0 ft / 0 m 0 ft / 0 m
11 200 ft / 61 m 8,008 ft / 2,441 m 87.49° 105.09° Asphalt 0 ft / 0 m 0 ft / 0 m
24 200 ft / 61 m 6,156 ft / 1,876 m 222.52° 240.12° Asphalt 0 ft / 0 m 0 ft / 0 m
29 200 ft / 61 m 8,008 ft / 2,441 m 267.51° 285.11° Asphalt 0 ft / 0 m 0 ft / 0 m

CYYG

Details ICAO CYYG (YYG)
Name CHARLOTTETOWN
Region Canada
Timezone America/Halifax (UTC-4.0)
Stats Elevation 160 ft / 49 m (AMSL)
Location 46.292586° -63.122276°
Runways 2
Magnetic Variation 17.904° W

METAR

CYYG 151000Z 24015G21KT 15SM FEW025 M12/M17 A2966 RMK SC2 SLP049

Decode

TAF

TAF CYYG 150538Z 1506/1518 25015G25KT P6SM SCT025 TEMPO 1506/1513 6SM -SHSN BKN020 RMK NXT FCST BY 151200Z

Decode

Destination Runways

ID Width Length Bearing (true) Bearing (mag) Surface Threshold Offset Overrun Length
03 151 ft / 46 m 7,007 ft / 2,136 m 9.01° 26.91° Asphalt 0 ft / 0 m 0 ft / 0 m
10 200 ft / 61 m 5,005 ft / 1,525 m 78.86° 96.76° Asphalt 0 ft / 0 m 0 ft / 0 m
21 151 ft / 46 m 7,007 ft / 2,136 m 189.01° 206.91° Asphalt 0 ft / 0 m 0 ft / 0 m
28 200 ft / 61 m 5,005 ft / 1,525 m 258.88° 276.78° Asphalt 0 ft / 0 m 0 ft / 0 m

Approach Navaids

Runway Type Ident Frequency Range Bearing (true) Bearing (mag) Slope Elevation
03 Localiser IYG 110.90 MHz 18 nm / 33 km 9.05° 26.95° - 160 ft / 49 m (AMSL)
03 Glidescope IYG 110.90 MHz 10 nm / 19 km 30.00° 47.90° 3.00° 160 ft / 49 m (AMSL)

Popular Alternatives